Главная страница
METAR-TAF:

METAR-TAF

Аэропорты :

Фрэнклин, Пенсильвания, США

широта: 41-23N, долгота: 079-52W, высота над уровнем моря: 469 м

Текущие метеонаблюдения

Эта сводка был подготовлена 57 минут назад, в 20:56 UTC
Ветер 5 Узел от северо-западный
Температура 30°C
Влажность 52%
Давление 1020 hPa
Видимость: 16.1 км
ясное небо

METAR: KFKL 172056Z AUTO 31005KT 10SM CLR 30/19 A3011 RMK AO2 SLP186 T03000189 56009

Время: 17:53 (21:53 UTC)

Прогноз

Эта сводка был подготовлена 4 часа и 33 минут назад, в 17:20 UTC
Прогноз действительный с 17-го 18 UTC до 18-го 18 UTC
Ветер 5 Узел от западный-юго-западный
Видимость: 10 км
Отдельные облака на высоте 3500 фута
С 18-го 0000 UTC
Ветер Узел от северный
Видимость: 10 км
Отдельные облака на высоте 25000 фута
С 18-го 1500 UTC
Ветер 8 Узел от западный-юго-западный
Видимость: 10 км
Отдельные облака на высоте 3500 фута

TAF: KFKL 171720Z 1718/1818 24005KT P6SM SCT035 FM180000 00000KT P6SM SCT250 FM181500 25008KT P6SM SCT035

Метеонаблюдения и прогнозы для более 4000 аэропортов (сводки METAR и TAF).

Имеющиеся станции представлены на карте желтыми и красными точками.

Чтобы увидеть название станции, наведите на нее мышь.

Затем щелкните, чтобы увидеть метеонаблюдения и метеопрогнозы.

Управление картой: чтобы увеличить масштаб, щелкните зеленые кнопки с черным крестиком; чтобы уменьшить масштаб, щелкните зеленую кнопку с тире; для просмотра соседних карт щелкайте зеленые стрелки.


METAR-TAF: